Time;durP1;ratioP1;P1;durP2;ratioP2;P2;SDS_P1;SDS_P2;PMS_P1;PMS_P2;Temp;Humidity;BMP_temperature;BMP_pressure;BME280_temperature;BME280_humidity;BME280_pressure;Samples;Min_cycle;Max_cycle;Signal;HPM_P1;HPM_P2
2022/07/17 00:01:31;;;;;;;7.55;5.55;;;;;;;23.38;65.10;100172.19;5026668;28;20069;-28
2022/07/17 00:03:57;;;;;;;7.53;6.32;;;;;;;22.90;68.92;100172.50;5029707;28;20037;-29
2022/07/17 00:06:22;;;;;;;7.50;6.80;;;;;;;23.09;68.66;100176.00;5029483;28;20402;-33
2022/07/17 00:08:48;;;;;;;9.50;7.18;;;;;;;23.17;69.42;100186.19;5029592;28;20034;-33
2022/07/17 00:11:13;;;;;;;8.20;6.88;;;;;;;23.26;69.80;100189.81;5028513;28;20060;-28
2022/07/17 00:13:39;;;;;;;8.20;7.30;;;;;;;23.13;70.05;100201.50;5029376;28;20021;-30
2022/07/17 00:16:06;;;;;;;9.05;6.82;;;;;;;23.14;69.46;100181.34;5029100;28;20045;-30
2022/07/17 00:18:31;;;;;;;7.47;6.70;;;;;;;23.20;70.71;100190.22;5028079;28;20034;-29
2022/07/17 00:20:56;;;;;;;8.95;6.75;;;;;;;22.71;71.81;100175.28;5029242;28;20044;-32
2022/07/17 00:23:22;;;;;;;8.98;6.65;;;;;;;22.73;72.48;100173.84;5029485;28;20091;-31
2022/07/17 00:25:47;;;;;;;7.57;6.78;;;;;;;23.18;70.92;100189.72;5029409;28;20139;-36
2022/07/17 00:28:13;;;;;;;9.63;6.97;;;;;;;23.15;70.90;100185.69;5029819;28;20083;-31
2022/07/17 00:30:38;;;;;;;10.40;6.47;;;;;;;22.99;71.92;100182.41;5029337;28;20083;-30
2022/07/17 00:33:04;;;;;;;6.95;6.13;;;;;;;22.65;73.32;100185.41;5029370;28;20029;-29
2022/07/17 00:35:30;;;;;;;9.70;6.75;;;;;;;22.40;75.13;100178.47;5029162;28;20087;-30
2022/07/17 00:37:55;;;;;;;8.10;6.78;;;;;;;22.43;74.69;100188.75;5027964;28;20028;-31
2022/07/17 00:40:23;;;;;;;8.40;7.60;;;;;;;22.64;73.05;100189.25;5029389;28;20037;-29
2022/07/17 00:42:49;;;;;;;7.20;6.50;;;;;;;22.56;72.43;100195.34;5027831;28;20048;-31
2022/07/17 00:45:15;;;;;;;7.03;6.30;;;;;;;22.72;68.73;100188.56;5027879;28;20116;-30
2022/07/17 00:47:58;;;;;;;8.68;6.45;;;;;;;22.87;68.57;100188.31;5028882;28;20449;-27
2022/07/17 00:50:32;;;;;;;10.40;7.32;;;;;;;23.00;67.21;100204.94;5027534;28;20128;-33
2022/07/17 00:52:58;;;;;;;8.05;7.10;;;;;;;22.99;68.46;100190.56;5029144;28;20037;-31
2022/07/17 00:55:24;;;;;;;7.65;6.85;;;;;;;22.65;70.29;100188.13;5028825;28;20029;-31
2022/07/17 00:57:51;;;;;;;9.98;7.28;;;;;;;22.73;69.65;100209.19;5027339;28;20109;-32
2022/07/17 01:00:18;;;;;;;8.68;7.45;;;;;;;22.77;69.40;100188.47;5028829;28;20083;-31
2022/07/17 01:02:49;;;;;;;10.70;7.32;;;;;;;22.86;69.60;100204.91;5027097;28;20487;-31
2022/07/17 01:05:15;;;;;;;8.88;7.05;;;;;;;22.76;69.77;100203.19;5027649;28;20057;-30
2022/07/17 01:07:41;;;;;;;9.27;7.53;;;;;;;22.55;69.89;100191.00;5027331;28;20025;-31
2022/07/17 01:10:07;;;;;;;9.07;7.07;;;;;;;22.65;69.51;100193.56;5027292;28;20052;-30
2022/07/17 01:12:34;;;;;;;8.25;7.45;;;;;;;22.62;69.83;100208.56;5028388;28;20096;-28
2022/07/17 01:15:00;;;;;;;7.82;7.03;;;;;;;22.56;70.21;100208.94;5026601;28;20056;-30
2022/07/17 01:17:26;;;;;;;10.18;7.30;;;;;;;22.53;70.91;100209.53;5026742;28;20091;-28
2022/07/17 01:19:52;;;;;;;9.00;7.68;;;;;;;22.57;71.18;100210.53;5028174;28;20037;-28
2022/07/17 01:22:18;;;;;;;10.70;7.32;;;;;;;21.91;73.35;100191.34;5027112;28;20029;-29
2022/07/17 01:24:43;;;;;;;8.52;6.90;;;;;;;21.85;74.77;100200.66;5027200;28;20040;-28
2022/07/17 01:27:09;;;;;;;9.43;7.35;;;;;;;21.82;75.65;100203.94;5028868;28;20504;-30
2022/07/17 01:29:38;;;;;;;7.65;6.85;;;;;;;21.98;74.06;100183.63;5028484;28;20429;-31
2022/07/17 01:32:05;;;;;;;8.15;7.35;;;;;;;21.87;74.07;100184.88;5026469;28;20487;-35
2022/07/17 01:34:30;;;;;;;9.23;7.57;;;;;;;21.89;74.96;100201.69;5026890;28;20026;-30
2022/07/17 01:36:56;;;;;;;8.23;7.32;;;;;;;22.01;74.64;100199.34;5028143;28;20037;-32
2022/07/17 01:39:52;;;;;;;8.60;7.60;;;;;;;22.30;72.95;100205.78;5028082;28;20029;-28
2022/07/17 01:42:07;;;;;;;10.73;8.00;;;;;;;22.35;72.21;100214.69;5027736;28;20459;-28
2022/07/17 01:44:33;;;;;;;10.48;7.70;;;;;;;22.37;71.72;100212.47;5028075;28;20575;-28
2022/07/17 01:46:58;;;;;;;9.43;7.70;;;;;;;22.52;71.76;100219.59;5027820;28;20083;-28
2022/07/17 01:49:24;;;;;;;11.00;7.05;;;;;;;22.33;71.79;100216.06;5026408;28;20033;-29
2022/07/17 01:51:49;;;;;;;9.18;7.72;;;;;;;22.09;74.34;100219.63;5026147;28;20428;-29
2022/07/17 01:54:15;;;;;;;8.32;7.40;;;;;;;21.99;73.91;100217.84;5027593;28;20091;-32
2022/07/17 01:56:40;;;;;;;9.73;8.15;;;;;;;22.14;72.37;100213.31;5027639;28;20507;-28
2022/07/17 01:59:06;;;;;;;11.02;7.35;;;;;;;21.99;72.38;100217.84;5027766;28;20076;-33
2022/07/17 02:01:31;;;;;;;10.98;8.20;;;;;;;21.92;72.37;100228.25;5026220;28;20033;-27
2022/07/17 02:03:57;;;;;;;9.40;7.95;;;;;;;21.84;72.24;100227.00;5026110;28;20780;-31
2022/07/17 02:06:22;;;;;;;10.05;8.40;;;;;;;21.97;71.93;100220.03;5027163;28;20548;-28
2022/07/17 02:08:50;;;;;;;9.90;7.65;;;;;;;21.65;72.49;100231.56;5026134;28;20031;-31
2022/07/17 02:11:19;;;;;;;9.27;6.63;;;;;;;21.53;72.74;100231.94;5025726;28;20494;-31
2022/07/17 02:13:44;;;;;;;8.73;6.88;;;;;;;21.44;71.95;100244.53;5025947;28;20037;-34
2022/07/17 02:16:09;;;;;;;7.65;6.75;;;;;;;21.39;72.24;100233.69;5026831;28;20453;-30
2022/07/17 02:18:36;;;;;;;8.48;7.10;;;;;;;21.58;71.42;100242.75;5027567;28;20055;-33
2022/07/17 02:21:02;;;;;;;8.20;7.10;;;;;;;21.67;71.51;100243.72;5027425;28;20025;-33
2022/07/17 02:23:28;;;;;;;11.30;7.10;;;;;;;21.52;71.82;100216.78;5027253;28;20018;-29
2022/07/17 02:25:54;;;;;;;8.65;6.93;;;;;;;21.42;72.44;100233.13;5026427;28;20714;-29
2022/07/17 02:28:20;;;;;;;8.90;7.10;;;;;;;21.47;71.58;100230.38;5027482;28;20913;-30
2022/07/17 02:30:46;;;;;;;8.07;6.95;;;;;;;21.83;69.82;100230.81;5027390;28;20112;-33
2022/07/17 02:33:12;;;;;;;8.25;7.20;;;;;;;22.11;69.33;100230.19;5009462;28;20404;-33
2022/07/17 02:35:37;;;;;;;8.45;6.90;;;;;;;21.81;69.38;100233.00;5027286;28;20034;-27
2022/07/17 02:38:03;;;;;;;8.13;6.93;;;;;;;21.50;71.11;100213.56;5025882;28;20025;-28
2022/07/17 02:40:28;;;;;;;11.60;7.40;;;;;;;21.36;73.13;100239.72;5027382;28;20030;-29
2022/07/17 02:42:55;;;;;;;12.13;7.30;;;;;;;21.11;74.88;100233.44;5027621;28;20033;-28
2022/07/17 02:45:24;;;;;;;10.45;6.57;;;;;;;20.69;75.61;100218.59;5027176;28;20029;-28
2022/07/17 02:47:53;;;;;;;8.35;7.07;;;;;;;20.99;73.17;100238.41;5026980;28;20028;-28
2022/07/17 02:50:19;;;;;;;8.30;7.03;;;;;;;20.83;74.57;100243.94;5025537;28;20033;-29
2022/07/17 02:52:44;;;;;;;7.88;7.07;;;;;;;20.75;74.53;100239.13;5025582;28;20022;-28
2022/07/17 02:55:10;;;;;;;11.40;7.90;;;;;;;20.75;75.64;100244.56;5026519;28;20026;-33
2022/07/17 02:57:37;;;;;;;9.73;7.82;;;;;;;20.44;77.54;100238.50;5026862;28;20034;-32
2022/07/17 03:00:08;;;;;;;8.75;7.85;;;;;;;20.76;77.11;100254.31;5025182;28;20033;-28
2022/07/17 03:02:34;;;;;;;7.97;6.90;;;;;;;20.74;76.23;100251.09;5026708;28;20034;-28
2022/07/17 03:04:59;;;;;;;11.38;7.07;;;;;;;20.73;76.17;100252.16;5026630;28;20033;-28
2022/07/17 03:07:25;;;;;;;9.18;7.25;;;;;;;20.78;75.98;100238.59;5025215;28;20028;-29
2022/07/17 03:09:50;;;;;;;8.55;7.07;;;;;;;20.73;76.15;100249.44;5024772;28;20034;-29
2022/07/17 03:12:16;;;;;;;11.15;8.02;;;;;;;20.60;77.06;100231.13;5026558;28;20025;-32
2022/07/17 03:14:41;;;;;;;14.40;7.65;;;;;;;20.93;75.09;100220.59;5026489;28;20049;-33
2022/07/17 03:17:07;;;;;;;12.82;7.90;;;;;;;21.27;74.11;100245.75;5026496;28;21042;-29
2022/07/17 03:19:32;;;;;;;10.80;7.80;;;;;;;20.66;77.63;100230.00;5026598;28;20041;-29
2022/07/17 03:21:58;;;;;;;11.05;7.78;;;;;;;20.35;77.83;100230.19;5026158;28;20030;-29
2022/07/17 03:24:23;;;;;;;11.13;8.45;;;;;;;20.69;77.32;100253.81;5026232;28;20025;-30
2022/07/17 03:26:49;;;;;;;11.15;8.20;;;;;;;21.02;76.26;100252.22;5026713;28;20396;-29
2022/07/17 03:29:17;;;;;;;11.82;7.82;;;;;;;20.67;76.42;100264.13;5025025;28;20030;-29
2022/07/17 03:31:46;;;;;;;13.52;8.10;;;;;;;20.22;77.64;100241.59;5026461;28;20108;-39
2022/07/17 03:34:11;;;;;;;10.93;7.93;;;;;;;20.10;79.43;100260.06;5026225;28;20036;-28
2022/07/17 03:36:37;;;;;;;14.05;8.52;;;;;;;19.90;78.83;100256.38;5025436;28;20025;-32
2022/07/17 03:39:03;;;;;;;13.35;8.63;;;;;;;20.16;79.13;100264.38;5030330;28;20022;-28
2022/07/17 03:41:28;;;;;;;8.77;7.78;;;;;;;19.96;81.06;100263.41;5030524;28;20044;-31
2022/07/17 03:43:54;;;;;;;9.43;8.45;;;;;;;19.90;81.39;100256.38;5028536;28;20052;-30
2022/07/17 03:46:20;;;;;;;8.98;8.07;;;;;;;19.97;81.70;100264.19;5030241;28;20033;-28
2022/07/17 03:48:45;;;;;;;10.18;8.82;;;;;;;20.00;80.69;100256.34;5029903;28;20052;-28
2022/07/17 03:51:11;;;;;;;9.82;8.82;;;;;;;20.07;80.15;100270.38;5028668;28;20032;-32
2022/07/17 03:53:36;;;;;;;9.70;8.48;;;;;;;19.89;82.38;100284.53;5029813;28;20029;-31
2022/07/17 03:56:02;;;;;;;9.90;9.00;;;;;;;20.24;80.69;100293.59;5029842;28;20108;-33
2022/07/17 03:58:28;;;;;;;9.85;8.85;;;;;;;20.55;79.64;100282.59;5030023;28;20029;-30
2022/07/17 04:00:54;;;;;;;9.35;8.45;;;;;;;20.39;79.74;100282.69;5029990;28;20520;-29
2022/07/17 04:03:20;;;;;;;12.10;8.77;;;;;;;20.81;77.30;100288.69;5028737;28;20059;-30
2022/07/17 04:05:45;;;;;;;11.27;8.63;;;;;;;20.75;76.83;100279.00;5029425;28;20033;-30
2022/07/17 04:08:12;;;;;;;10.75;8.85;;;;;;;20.97;76.48;100290.22;5028170;28;20038;-32
2022/07/17 04:10:38;;;;;;;11.33;9.17;;;;;;;21.11;76.52;100286.88;5030055;28;20025;-37
2022/07/17 04:13:04;;;;;;;10.95;8.93;;;;;;;21.42;75.19;100285.53;5028298;28;20040;-29
2022/07/17 04:18:13;;;;;;;11.65;8.77;;;;;;;22.15;70.86;100302.66;5029923;28;20032;-29
2022/07/17 04:20:38;;;;;;;12.48;8.98;;;;;;;22.07;70.94;100293.25;5029810;28;20037;-35
2022/07/17 04:23:05;;;;;;;11.73;8.65;;;;;;;22.38;69.76;100306.47;5029644;28;20033;-28
2022/07/17 04:25:30;;;;;;;9.00;8.10;;;;;;;22.43;69.34;100309.13;5029568;28;20071;-29
2022/07/17 04:27:56;;;;;;;10.32;8.55;;;;;;;22.53;69.22;100307.34;5027793;28;20053;-29
2022/07/17 04:30:22;;;;;;;10.85;7.78;;;;;;;22.32;69.33;100290.53;5029350;28;20026;-28
2022/07/17 04:32:47;;;;;;;9.57;7.78;;;;;;;22.63;68.24;100297.16;5029353;28;20056;-28
2022/07/17 04:35:13;;;;;;;9.05;8.02;;;;;;;22.74;68.33;100286.94;5028995;28;20459;-29
2022/07/17 04:37:39;;;;;;;10.35;7.90;;;;;;;22.97;68.58;100295.31;5029118;28;20037;-30
2022/07/17 04:40:05;;;;;;;13.07;7.47;;;;;;;23.21;67.89;100316.97;5029052;28;20407;-30
2022/07/17 04:42:31;;;;;;;10.10;7.70;;;;;;;23.05;67.51;100303.63;5027651;28;20520;-33
2022/07/17 04:44:56;;;;;;;9.77;7.75;;;;;;;23.13;66.84;100313.03;5028930;28;20065;-29
2022/07/17 04:47:22;;;;;;;11.02;8.20;;;;;;;23.21;66.93;100320.50;5028596;28;20412;-31
2022/07/17 04:49:47;;;;;;;10.90;8.32;;;;;;;23.20;67.84;100320.81;5028948;28;20481;-28
2022/07/17 04:52:13;;;;;;;10.32;8.13;;;;;;;23.40;67.63;100319.66;5029169;28;20139;-31
2022/07/17 04:54:38;;;;;;;8.55;7.65;;;;;;;23.41;66.43;100318.53;5028892;28;20402;-30
2022/07/17 04:57:04;;;;;;;10.35;7.45;;;;;;;23.63;64.62;100315.97;5029177;28;20039;-29
2022/07/17 04:59:29;;;;;;;8.98;7.20;;;;;;;23.67;64.73;100319.69;5029295;28;20033;-31
2022/07/17 05:01:54;;;;;;;11.18;7.68;;;;;;;23.57;65.77;100303.56;5028416;28;20025;-31
2022/07/17 05:04:20;;;;;;;11.40;7.78;;;;;;;23.65;65.53;100307.50;5028442;28;20144;-29
2022/07/17 05:06:46;;;;;;;9.40;8.30;;;;;;;23.78;66.82;100314.94;5028897;28;20065;-36
2022/07/17 05:09:11;;;;;;;15.68;11.75;;;;;;;23.94;66.69;100323.59;5028534;28;20033;-29
2022/07/17 05:11:37;;;;;;;37.88;28.90;;;;;;;24.09;64.54;100319.78;5028379;28;20028;-29
2022/07/17 05:14:03;;;;;;;14.80;10.13;;;;;;;24.27;64.26;100331.66;5028009;28;20048;-28
2022/07/17 05:16:28;;;;;;;8.48;6.75;;;;;;;24.29;63.45;100332.16;5027693;28;20176;-30
2022/07/17 05:18:54;;;;;;;10.40;7.28;;;;;;;24.48;60.46;100315.69;5028016;28;20029;-29
2022/07/17 05:21:19;;;;;;;8.40;7.40;;;;;;;24.64;59.34;100337.97;5028025;28;20041;-28
2022/07/17 05:23:44;;;;;;;36.25;26.88;;;;;;;24.31;61.53;100319.03;5027918;28;20025;-33
2022/07/17 05:26:10;;;;;;;8.43;7.25;;;;;;;24.58;60.90;100339.22;5026902;28;20037;-33
2022/07/17 05:28:36;;;;;;;9.05;8.15;;;;;;;24.57;60.82;100340.34;5028169;28;20070;-34
2022/07/17 05:31:02;;;;;;;14.52;12.65;;;;;;;24.61;59.81;100320.31;5026608;28;20034;-29
2022/07/17 05:33:27;;;;;;;8.60;7.70;;;;;;;24.65;61.13;100336.88;5027526;28;20026;-28
2022/07/17 05:35:52;;;;;;;9.10;7.22;;;;;;;24.75;60.98;100317.56;5027639;28;20029;-31
2022/07/17 05:38:18;;;;;;;8.15;7.32;;;;;;;24.79;60.29;100343.13;5028135;28;20029;-32
2022/07/17 05:40:43;;;;;;;9.63;7.05;;;;;;;24.52;61.10;100324.91;5027870;28;20045;-29
2022/07/17 05:43:09;;;;;;;8.93;7.63;;;;;;;24.75;60.91;100349.50;5027799;28;20025;-33
2022/07/17 05:45:34;;;;;;;10.52;8.02;;;;;;;24.88;60.74;100351.34;5027606;28;20450;-29
2022/07/17 05:48:00;;;;;;;9.15;7.93;;;;;;;25.11;59.94;100348.66;5027232;28;20033;-31
2022/07/17 05:50:25;;;;;;;9.13;6.88;;;;;;;25.13;59.42;100346.41;5027168;28;20030;-33
2022/07/17 05:52:51;;;;;;;10.15;6.85;;;;;;;25.14;59.22;100364.41;5027772;28;20025;-33
2022/07/17 05:55:16;;;;;;;8.18;6.90;;;;;;;25.22;60.40;100356.31;5027181;28;20029;-29
2022/07/17 05:57:42;;;;;;;8.00;6.10;;;;;;;25.42;58.53;100362.41;5025836;28;20029;-34
2022/07/17 06:00:08;;;;;;;7.68;6.18;;;;;;;25.61;57.49;100362.19;5024925;28;20092;-28
2022/07/17 06:02:34;;;;;;;6.82;5.25;;;;;;;25.54;55.59;100362.66;5025392;28;20061;-31
2022/07/17 06:04:59;;;;;;;7.03;5.82;;;;;;;25.53;56.26;100349.28;5026929;28;20036;-28
2022/07/17 06:07:24;;;;;;;7.75;6.00;;;;;;;25.74;55.87;100366.75;5027010;28;20106;-29
2022/07/17 06:09:50;;;;;;;7.25;5.65;;;;;;;25.84;55.20;100373.88;5025287;28;20041;-33
2022/07/17 06:12:15;;;;;;;8.65;5.38;;;;;;;26.00;54.75;100361.44;5026832;28;20112;-29
2022/07/17 06:14:41;;;;;;;7.35;5.95;;;;;;;26.16;54.54;100371.97;5027151;28;20037;-34
2022/07/17 06:17:06;;;;;;;6.78;5.10;;;;;;;26.26;53.50;100356.06;5025697;28;20029;-29
2022/07/17 06:19:32;;;;;;;7.82;5.75;;;;;;;26.44;54.44;100365.13;5025788;28;20136;-29
2022/07/17 06:21:57;;;;;;;8.98;5.35;;;;;;;26.65;53.89;100373.56;5027023;28;20022;-30
2022/07/17 06:24:22;;;;;;;7.45;5.05;;;;;;;26.74;51.37;100365.34;5027253;28;20029;-29
2022/07/17 06:26:48;;;;;;;6.88;4.85;;;;;;;26.86;51.24;100368.25;5025791;28;20059;-33
2022/07/17 06:29:13;;;;;;;6.60;4.90;;;;;;;27.02;49.84;100367.78;5026881;28;20083;-29
2022/07/17 06:31:39;;;;;;;7.70;4.93;;;;;;;26.93;50.98;100373.28;5026779;28;20416;-32
2022/07/17 06:34:04;;;;;;;6.22;4.38;;;;;;;27.06;47.74;100366.03;5026156;28;20029;-28
2022/07/17 06:36:30;;;;;;;6.18;4.63;;;;;;;27.11;48.80;100376.00;5026823;28;20034;-30
2022/07/17 06:38:55;;;;;;;7.03;3.95;;;;;;;27.36;45.52;100364.25;5026382;28;20029;-31
2022/07/17 06:41:21;;;;;;;5.70;3.92;;;;;;;27.35;43.53;100370.06;5026652;28;20083;-32
2022/07/17 06:43:46;;;;;;;8.02;4.05;;;;;;;27.38;43.91;100340.09;5006938;28;20046;-31
2022/07/17 06:46:12;;;;;;;6.70;3.88;;;;;;;27.56;43.24;100359.22;5006558;28;20037;-33
2022/07/17 06:48:37;;;;;;;7.93;3.88;;;;;;;27.59;43.38;100340.19;5006259;28;20429;-32
2022/07/17 06:51:03;;;;;;;6.60;4.07;;;;;;;28.10;42.30;100370.50;5006554;28;20043;-28
2022/07/17 06:53:28;;;;;;;5.30;3.75;;;;;;;28.05;41.78;100341.34;5005185;28;20030;-28
2022/07/17 06:55:54;;;;;;;5.38;4.05;;;;;;;28.30;42.53;100360.75;5004788;28;20115;-28
2022/07/17 06:58:19;;;;;;;7.07;4.32;;;;;;;28.29;41.96;100342.66;5006579;28;20030;-29
2022/07/17 07:00:44;;;;;;;7.05;4.00;;;;;;;28.41;43.65;100359.19;5006184;28;20026;-28
2022/07/17 07:03:10;;;;;;;6.03;3.97;;;;;;;28.64;41.10;100361.66;5006395;28;20033;-33
2022/07/17 07:05:35;;;;;;;6.22;3.70;;;;;;;28.51;41.50;100352.56;5006507;28;20048;-30
2022/07/17 07:08:01;;;;;;;6.38;4.18;;;;;;;28.63;39.72;100365.56;5006108;28;20041;-30
2022/07/17 07:10:27;;;;;;;6.82;3.95;;;;;;;28.72;38.86;100363.53;5005077;28;20070;-28
2022/07/17 07:12:52;;;;;;;5.25;3.63;;;;;;;28.56;40.58;100355.09;5006064;28;20034;-30
2022/07/17 07:15:18;;;;;;;5.88;3.50;;;;;;;28.55;40.18;100348.00;5005897;28;20050;-30
2022/07/17 07:17:44;;;;;;;5.95;3.80;;;;;;;28.76;40.94;100359.00;5005564;28;20026;-28
2022/07/17 07:20:10;;;;;;;6.40;4.00;;;;;;;29.01;39.40;100376.41;5006302;28;20025;-30
2022/07/17 07:22:36;;;;;;;4.60;3.45;;;;;;;29.10;39.21;100362.59;5004955;28;20033;-34
2022/07/17 07:25:02;;;;;;;4.95;3.58;;;;;;;29.11;40.54;100369.72;5004911;28;20076;-36
2022/07/17 07:27:28;;;;;;;4.47;3.65;;;;;;;29.24;39.74;100357.66;5004686;28;20198;-32
2022/07/17 07:29:53;;;;;;;6.93;3.42;;;;;;;29.20;40.32;100378.69;5004419;28;20544;-30
2022/07/17 07:32:19;;;;;;;5.70;3.38;;;;;;;28.93;38.61;100365.50;5006111;28;20449;-29
2022/07/17 07:34:44;;;;;;;6.80;4.07;;;;;;;29.12;37.97;100349.38;5006476;28;20104;-28
2022/07/17 07:37:10;;;;;;;5.45;3.80;;;;;;;29.36;37.18;100369.81;5027846;28;20034;-33
2022/07/17 07:39:35;;;;;;;7.60;3.22;;;;;;;29.43;36.42;100370.06;5010276;28;20057;-29
2022/07/17 07:42:01;;;;;;;6.82;3.75;;;;;;;29.63;38.38;100371.97;5006116;28;20026;-36
2022/07/17 07:44:26;;;;;;;8.82;3.50;;;;;;;29.87;38.20;100378.66;5006037;28;20025;-31
2022/07/17 07:46:52;;;;;;;5.28;3.60;;;;;;;29.94;36.89;100373.41;5006145;28;20034;-28
2022/07/17 07:49:17;;;;;;;6.65;3.33;;;;;;;29.78;35.14;100364.22;5006215;28;20127;-29
2022/07/17 07:51:43;;;;;;;6.22;3.45;;;;;;;29.75;35.22;100378.63;5005855;28;20034;-37
2022/07/17 07:54:09;;;;;;;5.15;3.13;;;;;;;29.79;36.47;100379.56;5004520;28;20094;-28
2022/07/17 07:56:35;;;;;;;6.03;3.38;;;;;;;29.92;37.30;100386.69;5005890;28;20107;-32
2022/07/17 07:59:01;;;;;;;4.63;3.10;;;;;;;29.90;35.15;100369.75;5004549;28;20555;-30
2022/07/17 08:01:27;;;;;;;6.47;3.13;;;;;;;30.36;36.60;100377.91;5004090;28;20045;-28
2022/07/17 08:03:52;;;;;;;4.93;3.10;;;;;;;30.66;34.44;100392.19;5005795;28;20615;-28
2022/07/17 08:06:18;;;;;;;6.38;3.45;;;;;;;30.48;34.30;100380.66;5005887;28;20045;-30
2022/07/17 08:08:43;;;;;;;5.95;3.10;;;;;;;30.40;34.30;100379.63;5005803;28;20481;-32
2022/07/17 08:11:09;;;;;;;4.32;3.00;;;;;;;30.42;35.53;100376.53;5004461;28;20569;-30
2022/07/17 08:13:34;;;;;;;5.50;3.63;;;;;;;30.92;34.58;100383.56;5005583;28;20025;-30
2022/07/17 08:16:00;;;;;;;5.47;3.03;;;;;;;30.69;34.19;100397.03;5005328;28;20057;-27
2022/07/17 08:18:26;;;;;;;5.70;3.25;;;;;;;30.79;33.81;100396.56;5005630;28;20092;-32
2022/07/17 08:20:53;;;;;;;5.00;3.10;;;;;;;30.95;33.64;100385.63;5004311;28;20128;-30
2022/07/17 08:23:18;;;;;;;5.57;3.03;;;;;;;31.42;34.27;100408.97;5005582;28;20653;-29
2022/07/17 08:25:46;;;;;;;5.88;2.80;;;;;;;31.34;32.48;100399.69;5008886;28;20112;-33
2022/07/17 08:28:11;;;;;;;4.97;3.17;;;;;;;31.06;32.11;100385.94;5007532;28;20034;-31
2022/07/17 08:30:37;;;;;;;4.47;3.10;;;;;;;31.06;29.98;100399.72;5008606;28;20034;-33
2022/07/17 08:33:07;;;;;;;5.32;2.92;;;;;;;31.28;33.53;100397.56;5008951;28;20029;-31
2022/07/17 08:35:34;;;;;;;4.45;2.80;;;;;;;31.68;32.79;100397.50;5010099;28;20282;-28
2022/07/17 08:38:02;;;;;;;5.53;2.97;;;;;;;31.64;31.62;100385.56;5026215;28;20232;-34
2022/07/17 08:40:30;;;;;;;4.93;2.90;;;;;;;31.90;30.96;100393.34;5028503;28;20268;-29
2022/07/17 08:42:58;;;;;;;4.25;2.72;;;;;;;31.69;29.15;100384.50;5027001;28;20037;-32
2022/07/17 08:45:23;;;;;;;;;;;;;;;32.12;28.99;100399.41;5027386;28;20401;-28
2022/07/17 08:47:54;;;;;;;4.78;2.72;;;;;;;32.24;30.29;100391.00;5027820;28;20395;-30
2022/07/17 08:50:24;;;;;;;4.78;2.90;;;;;;;32.54;30.03;100388.59;5026611;28;20037;-30
2022/07/17 08:52:50;;;;;;;4.63;2.70;;;;;;;32.69;29.41;100386.94;5026839;28;20025;-30
2022/07/17 08:55:16;;;;;;;5.75;2.83;;;;;;;32.49;28.88;100391.63;5026784;28;20488;-29
2022/07/17 08:57:43;;;;;;;6.55;3.05;;;;;;;32.60;30.97;100375.31;5026679;28;20857;-29
2022/07/17 09:00:20;;;;;;;;;;;;;;;33.20;30.26;100397.91;5027148;28;20037;-31
2022/07/17 09:03:15;;;;;;;5.88;2.97;;;;;;;33.46;27.69;100399.19;5027128;28;20008;-32
2022/07/17 09:05:41;;;;;;;5.82;2.80;;;;;;;33.38;28.95;100386.38;5014071;28;20072;-32
2022/07/17 09:08:15;;;;;;;3.55;2.33;;;;;;;33.30;27.43;100392.94;5026235;28;20103;-28
2022/07/17 09:10:42;;;;;;;3.95;2.47;;;;;;;33.38;26.48;100386.38;5026719;28;20033;-29
2022/07/17 09:13:28;;;;;;;3.70;2.45;;;;;;;33.14;28.41;100393.84;5027940;28;20120;-32
2022/07/17 09:16:05;;;;;;;4.67;2.77;;;;;;;33.20;26.54;100402.63;5025909;28;20050;-31
2022/07/17 09:18:31;;;;;;;;;;;;;;;33.39;27.36;100399.84;5026912;28;20124;-31
2022/07/17 09:20:58;;;;;;;4.20;2.80;;;;;;;33.32;27.12;100376.81;5027963;28;19977;-29
2022/07/17 09:23:25;;;;;;;4.78;2.80;;;;;;;33.81;27.69;100387.97;5026661;28;20056;-29
2022/07/17 09:25:53;;;;;;;4.47;2.28;;;;;;;33.71;26.67;100382.28;5026243;28;20176;-30
2022/07/17 09:28:20;;;;;;;6.85;2.80;;;;;;;33.24;25.75;100397.97;5026560;28;20021;-30
2022/07/17 09:30:49;;;;;;;5.72;2.40;;;;;;;33.53;25.26;100404.03;5026567;28;20034;-29
2022/07/17 09:33:20;;;;;;;3.92;2.22;;;;;;;33.16;26.16;100391.53;5026191;28;20060;-28
2022/07/17 09:35:56;;;;;;;6.65;2.50;;;;;;;33.67;26.09;100392.47;5026149;28;20033;-36
2022/07/17 09:38:33;;;;;;;20.75;5.00;;;;;;;33.94;26.62;100385.84;5026332;28;20032;-30
2022/07/17 09:41:18;;;;;;;6.10;2.40;;;;;;;33.97;23.83;100376.78;5027442;28;20084;-28
2022/07/17 09:43:47;;;;;;;4.03;2.17;;;;;;;33.57;24.06;100382.78;5026009;28;20041;-29
2022/07/17 09:46:20;;;;;;;4.97;2.10;;;;;;;33.33;24.47;100383.94;5027418;28;20029;-30
2022/07/17 09:48:54;;;;;;;18.23;5.07;;;;;;;33.86;25.92;100381.38;5027585;28;20034;-31
2022/07/17 09:51:23;;;;;;;4.57;2.13;;;;;;;33.94;23.59;100379.50;5027203;28;20036;-31
2022/07/17 09:53:52;;;;;;;4.15;2.20;;;;;;;33.66;21.63;100369.56;5025555;28;20029;-30
2022/07/17 09:56:20;;;;;;;3.90;1.92;;;;;;;33.76;22.89;100385.53;5025674;28;20040;-28
2022/07/17 09:58:50;;;;;;;5.07;2.13;;;;;;;33.46;21.46;100390.88;5025699;28;20397;-31
2022/07/17 10:01:17;;;;;;;4.07;2.15;;;;;;;33.53;22.00;100377.22;5025702;28;20099;-37
2022/07/17 10:03:43;;;;;;;3.22;2.10;;;;;;;33.65;22.27;100347.78;5027335;28;20032;-30
2022/07/17 10:06:10;;;;;;;4.50;1.77;;;;;;;33.83;22.88;100362.72;5025815;28;20068;-30
2022/07/17 10:08:37;;;;;;;14.30;3.22;;;;;;;33.65;21.86;100373.47;5025720;28;20065;-36
2022/07/17 10:11:08;;;;;;;59.30;12.75;;;;;;;34.11;21.25;100384.53;5025863;28;20033;-29
2022/07/17 10:13:38;;;;;;;4.28;2.25;;;;;;;33.93;22.07;100361.31;5027234;28;20065;-28
2022/07/17 10:16:04;;;;;;;7.80;2.35;;;;;;;33.78;21.04;100380.44;5024902;28;20045;-28
2022/07/17 10:18:43;;;;;;;10.73;3.03;;;;;;;33.94;22.97;100358.19;5025557;28;20037;-28
2022/07/17 10:21:14;;;;;;;4.38;1.95;;;;;;;33.96;21.39;100377.97;5025151;28;20512;-31
2022/07/17 10:23:40;;;;;;;5.25;2.03;;;;;;;33.94;21.71;100368.41;5025603;28;20035;-28
2022/07/17 10:26:06;;;;;;;4.25;2.15;;;;;;;34.27;21.54;100369.78;5025147;28;20047;-31
2022/07/17 10:28:58;;;;;;;3.20;1.92;;;;;;;34.62;21.08;100375.00;5026570;28;20033;-31
2022/07/17 10:31:29;;;;;;;4.20;2.17;;;;;;;34.86;21.73;100372.97;5024197;28;20041;-30
2022/07/17 10:34:04;;;;;;;4.88;1.92;;;;;;;34.74;19.98;100357.41;5025024;28;20029;-30
2022/07/17 10:36:43;;;;;;;3.08;1.90;;;;;;;35.00;21.77;100351.78;5026426;28;20029;-29
2022/07/17 10:39:21;;;;;;;3.40;1.90;;;;;;;35.35;21.98;100352.53;5026435;28;20052;-28
2022/07/17 10:41:59;;;;;;;2.75;1.90;;;;;;;35.12;20.63;100334.06;5024564;28;20037;-34
2022/07/17 10:44:30;;;;;;;3.70;1.92;;;;;;;35.02;20.16;100345.84;5025027;28;20033;-29
2022/07/17 10:46:56;;;;;;;4.38;1.80;;;;;;;35.19;21.21;100352.81;5024627;28;20192;-32
2022/07/17 10:49:26;;;;;;;3.20;1.92;;;;;;;35.33;20.68;100352.13;5025131;28;20026;-30
2022/07/17 10:51:53;;;;;;;3.90;1.90;;;;;;;35.16;21.86;100326.63;5024525;28;20033;-30
2022/07/17 10:54:20;;;;;;;5.67;2.00;;;;;;;35.39;21.01;100323.69;5024767;28;20026;-29
2022/07/17 10:56:46;;;;;;;4.05;2.00;;;;;;;35.53;21.44;100322.22;5024624;28;20841;-31
2022/07/17 10:59:11;;;;;;;4.70;2.00;;;;;;;35.94;20.49;100331.31;5024984;28;20037;-31
2022/07/17 11:01:37;;;;;;;3.47;1.90;;;;;;;35.71;19.68;100334.28;5025996;28;20461;-33
2022/07/17 11:04:04;;;;;;;2.63;1.90;;;;;;;35.71;21.16;100306.56;5026019;28;20552;-33
2022/07/17 11:06:38;;;;;;;4.35;2.00;;;;;;;35.37;21.79;100287.25;5024428;28;20025;-28
2022/07/17 11:09:09;;;;;;;5.75;2.42;;;;;;;35.41;21.79;100312.19;5024893;28;20136;-29
2022/07/17 11:11:38;;;;;;;7.13;4.40;;;;;;;35.64;21.88;100309.25;5026013;28;20025;-29
2022/07/17 11:14:08;;;;;;;4.22;2.33;;;;;;;35.95;19.27;100309.91;5024270;28;20117;-31
2022/07/17 11:16:33;;;;;;;6.13;2.58;;;;;;;36.18;20.41;100287.47;5024084;28;20057;-28
2022/07/17 11:18:59;;;;;;;3.00;2.13;;;;;;;36.43;19.91;100306.22;5024468;28;20455;-31
2022/07/17 11:21:25;;;;;;;4.00;1.90;;;;;;;36.26;19.33;100308.53;5025612;28;20566;-29
2022/07/17 11:23:55;;;;;;;5.78;3.65;;;;;;;36.57;19.44;100311.84;5025588;28;20032;-32
2022/07/17 11:26:21;;;;;;;9.68;5.03;;;;;;;36.29;19.63;100302.22;5024315;28;20029;-34